Spot Road, Arizona (BMGR) Weather observations

Data are for 10 minute period ending at time listed.
 Day   Time   Solar   Ave.   Ave.  Ave.  Vector  Max.   Total    
  of    of     Rad.   Air    Rel.  Wind   Wind   Wind  Precip.   
Year   Day            Temp.  Hum.  Speed  Dir.   Gust            
2026   (MST)  Kw/m2    F      %     mph   deg.    mph    in.     
-----------------------------------------------------------------
 123    6:35   0.05   74.9    22   13.7    92    16.0    0.00 
 123    6:40   0.05   75.0    22   12.4    80    14.4    0.00 
 123    6:45   0.06   75.1    22   12.4    86    15.5    0.00 
 123    6:50   0.06   75.7    21   13.2   101    15.5    0.00 
 123    6:55   0.07   75.9    21   12.1    99    14.9    0.00 
 123    7:00   0.07   75.9    21   11.2    96    13.8    0.00 
 123    7:05   0.09   76.0    21   10.8    87    12.7    0.00 
 123    7:10   0.11   76.4    21    9.3    86    11.6    0.00 
 123    7:15   0.12   77.1    20    9.2    82    10.5    0.00 
 123    7:20   0.12   76.8    21    7.8    59     9.3    0.00 
 123    7:25   0.13   77.0    21    7.4    77    10.5    0.00 
 123    7:30   0.18   77.2    20    7.7    91     9.9    0.00 
 123    7:35   0.26   77.6    20    8.7    88    11.0    0.00 
 123    7:40   0.30   78.0    20    7.9    85    10.5    0.00 
 123    7:45   0.21   78.7    20    8.7    86    11.6    0.00 
 123    7:50   0.17   79.1    19    9.0    89    10.5    0.00 
 123    7:55   0.17   79.7    19    8.6    92    11.0    0.00 
 123    8:00   0.21   80.3    18    8.2    91    10.5    0.00 
 123    8:05   0.25   81.4    18    5.7   100     7.1    0.00 
 123    8:10   0.22   82.1    17    4.8   136     6.5    0.00 
 123    8:15   0.24   82.5    17    4.7   128     6.0    0.00 
 123    8:20   0.29   83.0    16    5.6   133     8.2    0.00 
 123    8:25   0.37   83.6    16    7.1   156     9.9    0.00 
 123    8:30   0.42   83.9    16    7.8   162    11.0    0.00 
 123    8:35   0.38   84.2    16    9.6   166    13.3    0.00 
 123    8:40   0.43   84.5    16   12.7   161    15.5    0.00 
 123    8:45   0.54   84.5    16   12.3   154    16.6    0.00 
 123    8:50   0.53   85.1    16   13.2   148    17.2    0.00 
 123    8:55   0.55   85.8    16   12.8   137    20.5    0.00 
 123    9:00   0.54   85.5    16   17.0   137    21.1    0.00 
 123    9:05   0.57   85.3    16   15.9   134    20.0    0.00 
 123    9:10   0.52   86.0    16   13.5   133    16.6    0.00 
 123    9:15   0.54   86.3    15   15.6   147    20.0    0.00 
 123    9:20   0.53   86.4    16   15.3   148    20.5    0.00 
 123    9:25   0.55   86.4    16   14.8   149    19.4    0.00 
 123    9:30   0.58   86.6    16   14.6   150    19.4    0.00 
 123    9:35   0.52   86.6    16   15.6   157    21.1    0.00 
 123    9:40   0.55   86.5    16   16.9   162    21.1    0.00 
 123    9:45   0.59   86.9    15   17.8   160    23.3    0.00 
 123    9:50   0.59   87.2    15   19.8   164    25.0    0.00 
 123    9:55   0.72   87.2    15   20.0   163    25.6    0.00 
 123   10:00   0.73   87.5    15   17.5   164    21.1    0.00 
 123   10:05   0.64   88.2    15   17.6   157    23.9    0.00 
 123   10:10   0.75   88.2    15   18.2   155    23.3    0.00 
 123   10:15   0.77   88.7    15   18.9   172    25.0    0.00 
 123   10:20   0.77   88.5    14   17.6   141    21.6    0.00 
 123   10:25   0.58   88.5    15   20.3   154    30.0    0.00 
 123   10:30   0.56   87.8    15   23.5   159    27.8    0.00 
 123   10:35   0.72   88.1    15   21.0   156    25.0    0.00 
 123   10:40   0.83   88.4    15   18.5   141    23.9    0.00 
 123   10:45   0.81   89.2    14   20.9   157    26.7    0.00 
 123   10:50   0.79   89.0    15   21.6   167    28.4    0.00 
 123   10:55   0.64   88.8    15   23.1   168    29.5    0.00 
 123   11:00   0.77   88.6    16   20.4   166    26.7    0.00 
 123   11:05   0.59   89.1    16   21.6   170    26.7    0.00 
 123   11:10   0.75   88.7    16   21.7   166    29.5    0.00 
 123   11:15   0.83   88.9    16   20.8   169    26.7    0.00 
 123   11:20   0.87   89.2    16   24.6   161    28.9    0.00 
 123   11:25   0.82   89.0    16   20.3   156    27.2    0.00 
 123   11:30   0.75   89.3    16   21.5   159    30.6    0.00 
 123   11:35   0.89   89.8    15   19.4   155    27.8    0.00 
 123   11:40   0.91   90.5    14   19.7   154    27.2    0.00 
 123   11:45   0.91   90.2    14   23.0   160    29.5    0.00 
 123   11:50   0.92   90.3    14   20.3   162    25.0    0.00 
 123   11:55   0.91   90.8    14   22.7   160    28.4    0.00 
 123   12:00   0.91   90.6    14   22.5   159    30.0    0.00 
 123   12:05   0.91   90.7    14   20.3   154    26.7    0.00 
 123   12:10   0.91   90.4    14   21.9   160    28.9    0.00 
 123   12:15   0.91   91.4    14   21.6   144    28.4    0.00 
 123   12:20   0.91   90.8    14   23.7   140    30.0    0.00 
 123   12:25   0.92   90.6    14   22.5   145    29.5    0.00 
 123   12:30   0.92   90.7    14   24.3   149    30.0    0.00 
 123   12:35   0.92   90.6    14   22.5   139    28.9    0.00 
 123   12:40   0.91   90.9    15   22.9   144    31.1    0.00 
 123   12:45   0.91   91.1    15   21.9   160    29.5    0.00 
 123   12:50   0.91   91.6    15   23.5   142    33.9    0.00 
 123   12:55   0.91   91.6    14   18.4   134    27.2    0.00 
 123   13:00   0.91   91.7    14   22.1   147    28.9    0.00 
 123   13:05   0.90   91.3    14   18.5   153    27.2    0.00 
 123   13:10   0.90   91.6    14   20.1   162    30.6    0.00 
 123   13:15   0.90   91.7    14   23.1   153    32.8    0.00 
 123   13:20   0.89   91.6    14   20.4   166    30.0    0.00 
 123   13:25   0.89   92.3    14   20.5   176    27.8    0.00 
 123   13:30   0.89   92.2    14   25.1   166    33.4    0.00 
 123   13:35   0.88   91.8    14   22.4   179    28.9    0.00 
 123   13:40   0.88   92.0    14   25.4   160    35.1    0.00 
 123   13:45   0.87   92.0    14   25.8   152    31.7    0.00 
 123   13:50   0.86   91.6    15   22.9   151    30.0    0.00 
 123   13:55   0.85   91.8    14   20.3   135    26.1    0.00 
 123   14:00   0.85   92.5    14   22.2   160    27.2    0.00 
 123   14:05   0.84   91.9    15   21.2   144    30.6    0.00 
 123   14:10   0.83   91.9    14   23.6   131    32.3    0.00 
 123   14:15   0.83   91.9    14   22.1   160    32.8    0.00 
 123   14:20   0.81   91.9    14   23.3   171    31.1    0.00 
 123   14:25   0.80   91.4    15   19.0   161    32.3    0.00 
 123   14:30   0.79   91.7    15   21.6   131    30.0    0.00 
 123   14:35   0.78   92.4    14   26.4   136    31.7    0.00 
 123   14:40   0.77   92.1    15   26.2   140    34.5    0.00 
 123   14:45   0.76   92.0    15   24.0   117    34.5    0.00 
 123   14:50   0.75   91.6    15   23.5   118    34.5    0.00 
 123   14:55   0.74   91.9    15   29.6   137    36.7    0.00 
 123   15:00   0.73   91.7    14   25.6   112    31.7    0.00 
 123   15:05   0.71   91.8    16   24.1   126    31.1    0.00 
 123   15:10   0.70   92.3    15   28.2   148    38.4    0.00 
 123   15:15   0.69   91.4    15   23.7   125    33.4    0.00 
 123   15:20   0.68   91.7    15   26.6   109    33.9    0.00 
 123   15:25   0.67   91.7    15   30.3   139    35.1    0.00 
 123   15:30   0.66   91.8    15   27.7   124    33.4    0.00 
 123   15:35   0.64   91.6    15   28.9   130    37.3    0.00 
 123   15:40   0.63   91.0    16   29.3   127    37.3    0.00 
 123   15:45   0.62   91.0    16   30.3   143    41.8    0.00 
 123   15:50   0.60   91.2    15   27.4   136    36.2    0.00 
 123   15:55   0.59   90.9    15   30.4   143    37.8    0.00 
 123   16:00   0.58   90.8    15   28.2   136    35.1    0.00 
 123   16:05   0.56   91.3    15   27.4   141    36.2    0.00 
 123   16:10   0.55   91.1    16   28.0   148    34.5    0.00 
 123   16:15   0.54   90.4    15   26.6   142    35.1    0.00 
 123   16:20   0.52   90.1    16   31.6   130    40.7    0.00 
 123   16:25   0.51   90.4    15   29.5   129    37.3    0.00 
 123   16:30   0.49   90.0    16   26.0   133    32.8    0.00 
 123   16:35   0.48   90.4    16   27.6   133    36.7    0.00 
 123   16:40   0.47   89.8    16   27.8   119    35.1    0.00 
 123   16:45   0.45   89.6    16   27.1   138    36.7    0.00 
 123   16:50   0.44   89.9    15   28.0   145    35.6    0.00 
 123   16:55   0.43   89.7    15   28.0   143    36.2    0.00 
 123   17:00   0.34   89.5    15   29.5   134    35.1    0.00 
 123   17:05   0.30   88.9    16   27.0   131    31.7    0.00 
 123   17:10   0.36   88.9    16   27.6   141    35.1    0.00 
 123   17:15   0.38   89.3    16   27.8   145    35.1    0.00 
 123   17:20   0.35   89.1    16   28.3   146    33.9    0.00 
 123   17:25   0.33   88.5    17   29.2   145    36.2    0.00 
 123   17:30   0.31   88.6    16   24.3   142    35.1    0.00 
 123   17:35   0.30   88.1    18   29.0   144    34.5    0.00 
 123   17:40   0.28   88.2    17   29.0   136    36.7    0.00 
 123   17:45   0.26   88.1    18   30.7   145    38.4    0.00 
 123   17:50   0.25   87.7    18   28.4   147    38.4    0.00 
 123   17:55   0.21   87.7    18   28.6   152    34.5    0.00 
 123   18:00   0.11   87.1    18   28.4   146    37.3    0.00 
 123   18:05   0.08   86.7    18   26.8   140    32.8    0.00 
 123   18:10   0.09   86.5    18   26.8   137    31.1    0.00 
 123   18:15   0.09   86.2    18   27.7   130    34.5    0.00 
 123   18:20   0.08   85.8    19   27.0   127    31.7    0.00 
 123   18:25   0.07   85.7    19   24.6   134    33.4    0.00 
 123   18:30   0.06   85.5    19   26.6   142    31.7    0.00 
 123   18:35   0.06   85.3    19   23.3   132    32.8    0.00 
 123   18:40   0.05   85.0    19   24.2   128    30.0    0.00 
 123   18:45   0.04   84.7    20   22.1   131    28.4    0.00 
 123   18:50   0.03   84.3    21   22.3   135    30.6    0.00 
 123   18:55   0.02   84.1    23   20.4   135    25.0    0.00 
 123   19:00   0.02   83.5    25   22.9   134    28.4    0.00 
 123   19:05   0.01   83.1    26   21.1   137    25.6    0.00 
 123   19:10   0.01   82.7    26   21.6   132    27.8    0.00 
 123   19:15   0.00   82.3    26   23.7   134    29.5    0.00 
 123   19:20   0.00   81.9    26   23.5   140    28.4    0.00 
 123   19:25   0.00   81.6    26   24.2   143    31.7    0.00 
 123   19:30   0.00   81.4    26   23.6   142    27.8    0.00 
 123   19:35   0.00   81.2    26   24.5   145    29.5    0.00 
 123   19:40   0.00   81.0    26   21.2   143    26.7    0.00 
 123   19:45   0.00   80.7    26   22.3   141    28.4    0.00 
 123   19:50   0.00   80.3    28   21.5   136    27.2    0.00 
 123   19:55   0.00   80.1    29   19.3   137    23.3    0.00 
 123   20:00   0.00   79.9    30   17.1   140    21.6    0.00 
 123   20:05   0.00   79.8    30   18.1   139    23.3    0.00 
 123   20:10   0.00   79.8    31   18.8   138    24.4    0.00 
 123   20:15   0.00   79.6    31   17.3   134    22.8    0.00 
 123   20:20   0.00   79.5    31   17.5   133    22.2    0.00 
 123   20:25   0.00   79.4    32   18.0   137    25.0    0.00 
 123   20:30   0.00   79.3    31   17.4   137    25.6    0.00 
 123   20:35   0.00   79.2    31   19.0   139    24.4    0.00 
 123   20:40   0.00   79.0    31   15.9   147    23.3    0.00 
 123   20:45   0.00   79.0    31   17.8   149    23.3    0.00 
 123   20:50   0.00   78.9    31   18.3   143    27.2    0.00 
 123   20:55   0.00   78.7    31   19.3   150    27.8    0.00 
 123   21:00   0.00   78.7    31   20.6   146    28.4    0.00 
 123   21:05   0.00   78.6    30   17.8   146    22.8    0.00 
 123   21:10   0.00   78.5    30   22.7   141    33.4    0.00 
 123   21:15   0.00   78.5    31   21.8   147    29.5    0.00 
 123   21:20   0.00   78.1    31   14.6   134    22.2    0.00 
 123   21:25   0.00   77.9    32   19.0   140    24.4    0.00 
 123   21:30   0.00   77.9    32   17.6   143    23.3    0.00 
 123   21:35   0.00   77.8    32   14.4   143    23.3    0.00 
 123   21:40   0.00   77.6    32   20.9   144    28.4    0.00 
 123   21:45   0.00   77.5    32   19.1   145    28.4    0.00 
 123   21:50   0.00   77.2    33   17.1   139    24.4    0.00 
 123   21:55   0.00   77.0    34   19.1   146    26.1    0.00 
 123   22:00   0.00   76.9    34   19.5   146    28.4    0.00 
 123   22:05   0.00   76.9    33   21.5   149    25.6    0.00 
 123   22:10   0.00   76.7    34   22.6   149    30.0    0.00 
 123   22:15   0.00   76.6    34   22.6   152    34.5    0.00 
 123   22:20   0.00   76.4    35   24.9   150    28.4    0.00 
 123   22:25   0.00   76.1    36   23.3   147    30.0    0.00 
 123   22:30   0.00   75.9    36   23.3   146    30.6    0.00 
 123   22:35   0.00   75.8    36   24.0   146    31.1    0.00 
 123   22:40   0.00   75.8    36   22.9   143    30.6    0.00 
 123   22:45   0.00   75.7    37   24.3   144    30.0    0.00 
 123   22:50   0.00   75.7    37   24.2   144    31.1    0.00 
 123   22:55   0.00   75.7    37   22.6   146    27.2    0.00 
 123   23:00   0.00   75.6    37   21.4   148    30.6    0.00 
 123   23:05   0.00   75.6    38   24.5   149    31.1    0.00 
 123   23:10   0.00   75.6    38   26.2   150    30.6    0.00 
 123   23:15   0.00   75.6    37   21.3   157    27.2    0.00 
 123   23:20   0.00   75.7    37   16.8   161    23.3    0.00 
 123   23:25   0.00   75.5    38   16.3   167    21.6    0.00 
 123   23:30   0.00   75.2    39   15.3   170    20.5    0.00 
 123   23:35   0.00   75.1    39   17.1   170    23.9    0.00 
 123   23:40   0.00   75.0    40   21.0   168    27.8    0.00 
 123   23:45   0.00   74.9    40   17.9   165    25.6    0.00 
 123   23:50   0.00   74.8    40   15.5   172    25.0    0.00 
 123   23:55   0.00   74.7    40   16.9   168    25.6    0.00 
 124    0:00   0.00   74.5    41   20.6   167    25.6    0.00 
 124    0:05   0.00   74.3    42   20.1   164    25.0    0.00 
 124    0:10   0.00   74.1    44   20.9   165    26.1    0.00 
 124    0:15   0.00   73.9    44   15.7   167    19.4    0.00 
 124    0:20   0.00   73.7    45   16.2   160    21.6    0.00 
 124    0:25   0.00   73.6    46   12.5   154    18.3    0.00 
 124    0:30   0.00   73.5    47   10.4   134    14.9    0.00 
 124    0:35   0.00   73.4    47   11.2   113    16.6    0.00 
 124    0:40   0.00   73.3    47   12.8   118    15.5    0.00 
 124    0:45   0.00   73.4    47   12.9   116    16.0    0.00 
 124    0:50   0.00   73.5    47   12.1   126    17.2    0.00 
 124    0:55   0.00   73.4    47   12.9   143    16.6    0.00 
 124    1:00   0.00   73.3    47   11.1   136    13.3    0.00 
 124    1:05   0.00   73.2    48   11.4   141    14.4    0.00 
 124    1:10   0.00   73.2    48   13.4   150    18.9    0.00 
 124    1:15   0.00   72.9    50   14.8   139    17.7    0.00 
 124    1:20   0.00   72.7    50   12.5   149    16.0    0.00 
 124    1:25   0.00   72.6    51   12.7   149    17.7    0.00 
 124    1:30   0.00   72.5    52   16.7   150    21.1    0.00 
 124    1:35   0.00   72.4    53   16.9   147    20.0    0.00 
 124    1:40   0.00   72.3    53   16.3   147    20.0    0.00 
 124    1:45   0.00   72.3    53   15.9   137    18.9    0.00 
 124    1:50   0.00   72.1    53   14.9   139    19.4    0.00 
 124    1:55   0.00   72.0    54   15.5   135    17.2    0.00 
 124    2:00   0.00   71.9    54   13.7   135    17.7    0.00 
 124    2:05   0.00   71.7    55   14.5   135    18.3    0.00 
 124    2:10   0.00   71.6    56   14.6   128    17.2    0.00 
 124    2:15   0.00   71.4    56   15.2   131    17.7    0.00 
 124    2:20   0.00   71.3    57   14.4   138    18.3    0.00 
 124    2:25   0.00   71.2    57   12.8   150    15.5    0.00 
 124    2:30   0.00   71.2    57   11.0   161    12.7    0.00 
 124    2:35   0.00   71.1    58   11.1   162    14.4    0.00 
 124    2:40   0.00   71.0    58   10.8   157    12.7    0.00 
 124    2:45   0.00   70.8    58   10.6   165    13.3    0.00 
 124    2:50   0.00   70.8    58    8.9   158    12.7    0.00 
 124    2:55   0.00   70.9    58    9.8   153    13.3    0.00 
 124    3:00   0.00   70.8    58   10.4   151    13.3    0.00 
 124    3:05   0.00   70.6    58    7.3   131     9.9    0.00 
 124    3:10   0.00   70.3    60    8.1   132    11.0    0.00 
 124    3:15   0.00   70.2    62   11.2   134    14.9    0.00 
 124    3:20   0.00   70.1    63   12.7   137    15.5    0.00 
 124    3:25   0.00   69.9    63   12.2   143    16.0    0.00 
 124    3:30   0.00   69.8    64   11.7   145    17.2    0.00 
 124    3:35   0.00   69.7    64   14.3   149    16.6    0.00 
 124    3:40   0.00   69.7    64   12.9   172    16.0    0.00 
 124    3:45   0.00   68.6    43   11.8   220    14.4    0.00 
 124    3:50   0.00   67.9    40   12.0   210    16.0    0.00 
 124    3:55   0.00   67.7    40   10.6   214    13.8    0.00 
 124    4:00   0.00   67.6    40   11.4   221    13.8    0.00 
 124    4:05   0.00   67.5    40   11.2   227    16.0    0.00 
 124    4:10   0.00   67.4    40   12.5   222    16.0    0.00 
 124    4:15   0.00   67.2    40   12.1   216    16.6    0.00 
 124    4:20   0.00   66.9    40   12.7   218    17.2    0.00 
 124    4:25   0.00   66.7    40   12.1   221    14.9    0.00 
 124    4:30   0.00   66.5    41   13.3   221    16.6    0.00 
 124    4:35   0.00   66.3    41   13.9   219    16.6    0.00 
 124    4:40   0.00   66.1    41   11.3   218    14.9    0.00 
 124    4:45   0.00   65.9    42   10.9   220    13.8    0.00 
 124    4:50   0.00   65.8    42    9.4   216    11.6    0.00 
 124    4:55   0.00   65.7    42    8.8   214    11.0    0.00 
 124    5:00   0.00   65.6    42    8.8   210    11.6    0.00 
 124    5:05   0.00   65.6    42    9.7   208    12.1    0.00 
 124    5:10   0.00   65.6    42   10.1   206    12.1    0.00 
 124    5:15   0.00   65.6    42    9.9   200    12.7    0.00 
 124    5:20   0.00   65.6    42    9.1   196    11.0    0.00 
 124    5:25   0.00   65.7    42    9.2   192    11.0    0.00 
 124    5:30   0.00   65.7    41   10.5   189    13.8    0.00 
 124    5:35   0.00   65.9    41   13.4   191    15.5    0.00 
 124    5:40   0.00   65.9    41   11.7   187    13.8    0.00 
 124    5:45   0.00   65.9    40   10.7   182    13.8    0.00 
 124    5:50   0.00   65.8    40    8.1   176    11.0    0.00 
 124    5:55   0.00   65.8    40    6.9   177     8.8    0.00 
 124    6:00   0.00   65.8    40    7.7   184     9.9    0.00 
 124    6:05   0.01   65.8    40    8.6   191    11.6    0.00 
 124    6:10   0.01   65.8    40    9.8   190    11.6    0.00 
 124    6:15   0.01   65.8    40    7.8   182    10.5    0.00 
 124    6:20   0.02   65.8    40    6.6   176     8.8    0.00 
 124    6:25   0.02   65.8    40    6.2   174     8.2    0.00 
 124    6:30   0.02   65.8    40    6.4   174     7.7    0.00 

Return to Spot Road graphs page.


Western Regional Climate Center,wrcc@dri.edu